カシュガル の空港の天気 - METARとTAF

カシュガル空港 ( ZWSH / KHG ) - 中国 新疆ウイグル自治区カシュガル市
飛行場実況気象(Metar)
観測時間08/26 03:00 CST (08/25 19:00 UTC)
風向・風速北西 5m/s
視程10km以上
天気現象
-
気温22℃
湿度38%
気圧1017hPa
METARZWSH 251900Z AUTO 32005MPS 9999 // ////// 22/07 Q1017
過去の天気等 Google飛行場航空写真 Wunderground天気予報

過去48時間のMETAR

飛行場予報(TAF)
発表時間: 8/25 23:10 CST (8/25 15:10 UTC)
予報対象時間: 26日2時 CST ~ 27日2時 CST
風向・風速東南東 4m/s
視程10km以上
少しの雲 雲底高度 1220m
TAF ZWSH 251510Z 2518/2618 12004MPS 9999 FEW040 TX29/2609Z TN18/2524Z